sensor_id;sensor_type;location;lat;lon;timestamp;pressure;altitude;pressure_sealevel;temperature;humidity
75604;BME280;64187;51.010;13.792;2023-03-14T00:02:35;98227.44;;;10.78;87.41
75604;BME280;64187;51.010;13.792;2023-03-14T00:07:35;98204.16;;;10.63;87.72
75604;BME280;64187;51.010;13.792;2023-03-14T00:12:35;98191.53;;;10.59;88.07
75604;BME280;64187;51.010;13.792;2023-03-14T00:17:35;98169.72;;;10.69;87.10
75604;BME280;64187;51.010;13.792;2023-03-14T00:22:35;98159.06;;;10.59;87.53
75604;BME280;64187;51.010;13.792;2023-03-14T00:27:34;98146.03;;;10.61;87.17
75604;BME280;64187;51.010;13.792;2023-03-14T00:32:33;98149.56;;;10.61;86.93
75604;BME280;64187;51.010;13.792;2023-03-14T00:37:34;98151.06;;;10.67;86.35
75604;BME280;64187;51.010;13.792;2023-03-14T00:42:33;98167.28;;;10.67;86.10
75604;BME280;64187;51.010;13.792;2023-03-14T00:47:32;98194.97;;;10.78;85.57
75604;BME280;64187;51.010;13.792;2023-03-14T00:52:30;98186.13;;;10.91;84.79
75604;BME280;64187;51.010;13.792;2023-03-14T00:57:30;98178.97;;;10.82;85.36
75604;BME280;64187;51.010;13.792;2023-03-14T01:02:29;98182.72;;;10.99;84.31
75604;BME280;64187;51.010;13.792;2023-03-14T01:07:28;98188.63;;;11.02;83.24
75604;BME280;64187;51.010;13.792;2023-03-14T01:12:27;98182.44;;;11.15;82.05
75604;BME280;64187;51.010;13.792;2023-03-14T01:17:26;98194.38;;;11.28;81.97
75604;BME280;64187;51.010;13.792;2023-03-14T01:22:25;98174.63;;;11.27;82.08
75604;BME280;64187;51.010;13.792;2023-03-14T01:27:24;98155.56;;;11.32;81.42
75604;BME280;64187;51.010;13.792;2023-03-14T01:32:23;98168.13;;;11.28;81.37
75604;BME280;64187;51.010;13.792;2023-03-14T01:37:23;98167.81;;;11.57;80.07
75604;BME280;64187;51.010;13.792;2023-03-14T01:42:22;98173.63;;;11.37;80.47
75604;BME280;64187;51.010;13.792;2023-03-14T01:47:22;98170.13;;;11.36;80.19
75604;BME280;64187;51.010;13.792;2023-03-14T01:52:30;98172.03;;;11.50;79.14
75604;BME280;64187;51.010;13.792;2023-03-14T01:57:38;98145.22;;;11.62;78.08
75604;BME280;64187;51.010;13.792;2023-03-14T02:02:45;98158.38;;;11.55;78.20
75604;BME280;64187;51.010;13.792;2023-03-14T02:07:50;98158.09;;;11.56;77.87
75604;BME280;64187;51.010;13.792;2023-03-14T02:12:55;98147.16;;;11.34;79.02
75604;BME280;64187;51.010;13.792;2023-03-14T02:18:14;98149.78;;;11.53;77.28
75604;BME280;64187;51.010;13.792;2023-03-14T02:23:35;98145.94;;;11.40;77.87
75604;BME280;64187;51.010;13.792;2023-03-14T02:28:35;98148.56;;;11.31;78.08
75604;BME280;64187;51.010;13.792;2023-03-14T02:33:36;98131.19;;;11.32;77.93
75604;BME280;64187;51.010;13.792;2023-03-14T02:43:58;98134.91;;;11.36;75.72
75604;BME280;64187;51.010;13.792;2023-03-14T02:49:02;98132.28;;;11.45;73.61
75604;BME280;64187;51.010;13.792;2023-03-14T02:54:03;98137.94;;;11.49;72.93
75604;BME280;64187;51.010;13.792;2023-03-14T02:59:03;98145.03;;;11.72;71.22
75604;BME280;64187;51.010;13.792;2023-03-14T03:04:15;98134.28;;;11.67;71.33
75604;BME280;64187;51.010;13.792;2023-03-14T03:09:17;98125.56;;;11.70;71.28
75604;BME280;64187;51.010;13.792;2023-03-14T03:14:16;98102.13;;;12.02;68.64
75604;BME280;64187;51.010;13.792;2023-03-14T03:19:15;98093.75;;;12.12;68.25
75604;BME280;64187;51.010;13.792;2023-03-14T03:24:15;98101.72;;;11.95;69.32
75604;BME280;64187;51.010;13.792;2023-03-14T03:29:14;98111.16;;;11.97;68.49
75604;BME280;64187;51.010;13.792;2023-03-14T03:34:14;98113.53;;;12.13;67.73
75604;BME280;64187;51.010;13.792;2023-03-14T03:39:13;98127.53;;;12.28;66.91
75604;BME280;64187;51.010;13.792;2023-03-14T03:44:12;98137.34;;;12.16;68.47
75604;BME280;64187;51.010;13.792;2023-03-14T03:49:12;98135.53;;;12.11;68.72
75604;BME280;64187;51.010;13.792;2023-03-14T03:54:11;98126.09;;;12.09;68.86
75604;BME280;64187;51.010;13.792;2023-03-14T03:59:10;98131.22;;;12.10;68.74
75604;BME280;64187;51.010;13.792;2023-03-14T04:04:09;98114.47;;;12.08;68.95
75604;BME280;64187;51.010;13.792;2023-03-14T04:09:10;98105.38;;;11.90;69.27
75604;BME280;64187;51.010;13.792;2023-03-14T04:14:14;98104.09;;;11.88;69.46
75604;BME280;64187;51.010;13.792;2023-03-14T04:19:14;98106.75;;;12.01;67.23
75604;BME280;64187;51.010;13.792;2023-03-14T04:24:14;98110.13;;;12.07;66.17
75604;BME280;64187;51.010;13.792;2023-03-14T04:29:16;98113.84;;;12.11;65.36
75604;BME280;64187;51.010;13.792;2023-03-14T04:34:16;98115.63;;;12.16;65.79
75604;BME280;64187;51.010;13.792;2023-03-14T04:39:22;98096.13;;;12.27;64.62
75604;BME280;64187;51.010;13.792;2023-03-14T04:44:38;98109.78;;;12.22;64.95
75604;BME280;64187;51.010;13.792;2023-03-14T04:49:38;98101.41;;;12.10;65.27
75604;BME280;64187;51.010;13.792;2023-03-14T04:54:39;98094.50;;;12.26;65.83
75604;BME280;64187;51.010;13.792;2023-03-14T04:59:38;98086.72;;;12.11;64.66
75604;BME280;64187;51.010;13.792;2023-03-14T05:05:04;98112.41;;;11.91;65.00
75604;BME280;64187;51.010;13.792;2023-03-14T05:10:13;98095.09;;;12.01;64.79
75604;BME280;64187;51.010;13.792;2023-03-14T05:15:25;98091.88;;;11.99;64.74
75604;BME280;64187;51.010;13.792;2023-03-14T05:20:44;98086.84;;;12.06;63.94
75604;BME280;64187;51.010;13.792;2023-03-14T05:25:52;98093.03;;;14.93;68.21
75604;BME280;64187;51.010;13.792;2023-03-14T05:31:10;98085.84;;;14.80;56.61
75604;BME280;64187;51.010;13.792;2023-03-14T05:36:18;98086.22;;;15.67;57.66
75604;BME280;64187;51.010;13.792;2023-03-14T05:41:43;98071.78;;;15.67;56.78
75604;BME280;64187;51.010;13.792;2023-03-14T05:47:02;98060.59;;;15.89;56.52
75604;BME280;64187;51.010;13.792;2023-03-14T05:52:13;98057.00;;;15.98;55.68
75604;BME280;64187;51.010;13.792;2023-03-14T05:57:30;98061.00;;;16.00;54.21
75604;BME280;64187;51.010;13.792;2023-03-14T06:02:55;98057.59;;;15.82;54.67
75604;BME280;64187;51.010;13.792;2023-03-14T06:08:00;98056.31;;;14.17;56.17
75604;BME280;64187;51.010;13.792;2023-03-14T06:13:02;98058.88;;;12.82;59.24
75604;BME280;64187;51.010;13.792;2023-03-14T06:18:03;98065.16;;;12.91;59.54
75604;BME280;64187;51.010;13.792;2023-03-14T06:23:03;98073.91;;;12.25;62.37
75604;BME280;64187;51.010;13.792;2023-03-14T06:28:03;98083.25;;;11.97;63.00
75604;BME280;64187;51.010;13.792;2023-03-14T06:33:02;98093.94;;;12.16;62.48
75604;BME280;64187;51.010;13.792;2023-03-14T06:38:02;98105.09;;;12.14;63.18
75604;BME280;64187;51.010;13.792;2023-03-14T06:43:01;98107.28;;;12.12;63.07
75604;BME280;64187;51.010;13.792;2023-03-14T06:48:02;98123.91;;;12.11;62.88
75604;BME280;64187;51.010;13.792;2023-03-14T06:53:09;98124.84;;;11.92;63.92
75604;BME280;64187;51.010;13.792;2023-03-14T06:58:11;98108.78;;;12.18;63.42
75604;BME280;64187;51.010;13.792;2023-03-14T07:03:15;98103.78;;;12.12;63.43
75604;BME280;64187;51.010;13.792;2023-03-14T07:08:18;98112.63;;;12.40;62.17
75604;BME280;64187;51.010;13.792;2023-03-14T07:13:17;98120.91;;;12.35;62.98
75604;BME280;64187;51.010;13.792;2023-03-14T07:18:24;98119.53;;;12.23;63.79
75604;BME280;64187;51.010;13.792;2023-03-14T07:23:23;98128.53;;;12.33;63.95
75604;BME280;64187;51.010;13.792;2023-03-14T07:28:24;98125.09;;;12.41;62.94
75604;BME280;64187;51.010;13.792;2023-03-14T07:33:30;98126.13;;;12.54;63.32
75604;BME280;64187;51.010;13.792;2023-03-14T07:38:29;98128.16;;;12.48;63.61
75604;BME280;64187;51.010;13.792;2023-03-14T07:43:43;98118.91;;;12.49;63.23
75604;BME280;64187;51.010;13.792;2023-03-14T07:48:42;98129.03;;;12.35;64.31
75604;BME280;64187;51.010;13.792;2023-03-14T07:53:41;98138.78;;;12.36;63.09
75604;BME280;64187;51.010;13.792;2023-03-14T07:58:41;98129.75;;;12.49;64.23
75604;BME280;64187;51.010;13.792;2023-03-14T08:03:40;98116.88;;;12.55;63.47
75604;BME280;64187;51.010;13.792;2023-03-14T08:08:39;98114.84;;;12.60;61.81
75604;BME280;64187;51.010;13.792;2023-03-14T08:13:38;98101.81;;;12.71;61.59
75604;BME280;64187;51.010;13.792;2023-03-14T08:18:37;98109.28;;;12.65;61.40
75604;BME280;64187;51.010;13.792;2023-03-14T08:23:36;98115.94;;;12.59;62.04
75604;BME280;64187;51.010;13.792;2023-03-14T08:28:35;98118.53;;;12.64;61.33
75604;BME280;64187;51.010;13.792;2023-03-14T08:33:34;98113.97;;;13.05;60.04
75604;BME280;64187;51.010;13.792;2023-03-14T08:38:33;98107.63;;;13.18;59.24
75604;BME280;64187;51.010;13.792;2023-03-14T08:43:32;98114.28;;;13.43;58.48
75604;BME280;64187;51.010;13.792;2023-03-14T08:48:32;98118.66;;;13.62;58.64
75604;BME280;64187;51.010;13.792;2023-03-14T08:53:30;98111.03;;;13.90;58.33
75604;BME280;64187;51.010;13.792;2023-03-14T08:58:29;98100.63;;;14.00;56.98
75604;BME280;64187;51.010;13.792;2023-03-14T09:03:28;98108.25;;;13.55;56.11
75604;BME280;64187;51.010;13.792;2023-03-14T09:08:27;98108.59;;;13.22;57.95
75604;BME280;64187;51.010;13.792;2023-03-14T09:13:26;98103.47;;;13.21;57.59
75604;BME280;64187;51.010;13.792;2023-03-14T09:18:26;98101.47;;;13.35;59.04
75604;BME280;64187;51.010;13.792;2023-03-14T09:23:24;98098.97;;;13.47;57.98
75604;BME280;64187;51.010;13.792;2023-03-14T09:28:24;98103.03;;;13.85;58.02
75604;BME280;64187;51.010;13.792;2023-03-14T09:33:23;98108.31;;;13.90;57.70
75604;BME280;64187;51.010;13.792;2023-03-14T09:38:22;98112.94;;;13.72;57.50
75604;BME280;64187;51.010;13.792;2023-03-14T09:43:23;98111.78;;;13.64;57.66
75604;BME280;64187;51.010;13.792;2023-03-14T09:48:27;98111.06;;;13.41;57.09
75604;BME280;64187;51.010;13.792;2023-03-14T09:53:40;98114.13;;;13.08;57.18
75604;BME280;64187;51.010;13.792;2023-03-14T09:58:41;98124.28;;;13.25;57.44
75604;BME280;64187;51.010;13.792;2023-03-14T10:03:44;98124.91;;;13.22;58.15
75604;BME280;64187;51.010;13.792;2023-03-14T10:08:45;98115.38;;;13.02;57.32
75604;BME280;64187;51.010;13.792;2023-03-14T10:13:50;98126.41;;;12.97;57.71
75604;BME280;64187;51.010;13.792;2023-03-14T10:19:13;98127.75;;;13.17;57.18
75604;BME280;64187;51.010;13.792;2023-03-14T10:24:22;98133.91;;;13.00;56.87
75604;BME280;64187;51.010;13.792;2023-03-14T10:29:24;98124.34;;;13.03;57.36
75604;BME280;64187;51.010;13.792;2023-03-14T10:34:26;98117.38;;;13.19;57.53
75604;BME280;64187;51.010;13.792;2023-03-14T10:39:30;98112.50;;;13.30;56.69
75604;BME280;64187;51.010;13.792;2023-03-14T10:44:34;98117.78;;;13.35;56.88
75604;BME280;64187;51.010;13.792;2023-03-14T10:49:36;98109.63;;;13.35;56.99
75604;BME280;64187;51.010;13.792;2023-03-14T10:54:34;98114.63;;;13.42;57.40
75604;BME280;64187;51.010;13.792;2023-03-14T10:59:36;98113.97;;;13.45;56.42
75604;BME280;64187;51.010;13.792;2023-03-14T11:05:03;98113.69;;;13.24;57.14
75604;BME280;64187;51.010;13.792;2023-03-14T11:15:34;98120.09;;;13.59;55.85
75604;BME280;64187;51.010;13.792;2023-03-14T11:20:44;98121.66;;;13.51;56.07
75604;BME280;64187;51.010;13.792;2023-03-14T11:30:55;98109.25;;;13.76;54.75
75604;BME280;64187;51.010;13.792;2023-03-14T11:36:09;98102.03;;;13.63;55.71
75604;BME280;64187;51.010;13.792;2023-03-14T11:41:14;98095.84;;;14.15;55.15
75604;BME280;64187;51.010;13.792;2023-03-14T11:46:25;98092.78;;;14.42;53.41
75604;BME280;64187;51.010;13.792;2023-03-14T11:51:33;98081.25;;;14.11;52.94
75604;BME280;64187;51.010;13.792;2023-03-14T11:56:41;98082.06;;;13.76;54.60
75604;BME280;64187;51.010;13.792;2023-03-14T12:01:53;98071.13;;;13.42;55.08
75604;BME280;64187;51.010;13.792;2023-03-14T12:06:53;98064.28;;;13.53;56.16
75604;BME280;64187;51.010;13.792;2023-03-14T12:11:58;98057.75;;;13.80;54.00
75604;BME280;64187;51.010;13.792;2023-03-14T12:17:46;98045.41;;;14.17;54.22
75604;BME280;64187;51.010;13.792;2023-03-14T12:22:28;98046.91;;;14.79;53.58
75604;BME280;64187;51.010;13.792;2023-03-14T12:27:42;98046.63;;;15.40;50.72
75604;BME280;64187;51.010;13.792;2023-03-14T12:32:42;98056.97;;;15.26;51.97
75604;BME280;64187;51.010;13.792;2023-03-14T12:37:45;98047.94;;;14.57;54.77
75604;BME280;64187;51.010;13.792;2023-03-14T12:43:04;98046.75;;;15.14;56.76
75604;BME280;64187;51.010;13.792;2023-03-14T12:48:23;98046.94;;;15.89;54.29
75604;BME280;64187;51.010;13.792;2023-03-14T12:59:03;98037.28;;;15.92;51.78
75604;BME280;64187;51.010;13.792;2023-03-14T13:04:10;98034.69;;;15.75;50.43
75604;BME280;64187;51.010;13.792;2023-03-14T13:14:31;98022.50;;;15.51;50.23
75604;BME280;64187;51.010;13.792;2023-03-14T13:19:33;98024.63;;;15.75;50.90
75604;BME280;64187;51.010;13.792;2023-03-14T13:24:34;98020.06;;;15.28;51.75
75604;BME280;64187;51.010;13.792;2023-03-14T13:29:35;98023.47;;;14.96;52.27
75604;BME280;64187;51.010;13.792;2023-03-14T13:34:34;98018.91;;;15.38;52.41
75604;BME280;64187;51.010;13.792;2023-03-14T13:39:33;97996.63;;;15.57;51.80
75604;BME280;64187;51.010;13.792;2023-03-14T13:44:39;98016.69;;;15.32;51.86
75604;BME280;64187;51.010;13.792;2023-03-14T13:49:38;98011.94;;;14.90;53.23
75604;BME280;64187;51.010;13.792;2023-03-14T13:54:38;98008.28;;;15.16;51.94
75604;BME280;64187;51.010;13.792;2023-03-14T13:59:37;98009.44;;;15.36;51.47
75604;BME280;64187;51.010;13.792;2023-03-14T14:04:36;98002.22;;;15.10;51.11
75604;BME280;64187;51.010;13.792;2023-03-14T14:09:41;97999.97;;;15.12;50.58
75604;BME280;64187;51.010;13.792;2023-03-14T14:14:57;97993.41;;;15.34;51.94
75604;BME280;64187;51.010;13.792;2023-03-14T14:19:58;98008.47;;;15.11;51.98
75604;BME280;64187;51.010;13.792;2023-03-14T14:24:59;97999.34;;;15.36;52.03
75604;BME280;64187;51.010;13.792;2023-03-14T14:35:25;97967.81;;;15.47;51.93
75604;BME280;64187;51.010;13.792;2023-03-14T14:40:27;97970.75;;;15.21;51.33
75604;BME280;64187;51.010;13.792;2023-03-14T14:45:27;97976.41;;;14.78;52.91
75604;BME280;64187;51.010;13.792;2023-03-14T14:50:28;97973.34;;;14.88;52.93
75604;BME280;64187;51.010;13.792;2023-03-14T14:55:39;97978.34;;;14.77;52.45
75604;BME280;64187;51.010;13.792;2023-03-14T15:00:39;97971.69;;;14.66;51.79
75604;BME280;64187;51.010;13.792;2023-03-14T15:05:40;97973.84;;;14.81;51.29
75604;BME280;64187;51.010;13.792;2023-03-14T15:10:39;97979.97;;;14.78;51.84
75604;BME280;64187;51.010;13.792;2023-03-14T15:15:38;97968.25;;;14.78;51.96
75604;BME280;64187;51.010;13.792;2023-03-14T15:20:37;97962.78;;;14.39;53.63
75604;BME280;64187;51.010;13.792;2023-03-14T15:25:36;97957.22;;;14.27;54.33
75604;BME280;64187;51.010;13.792;2023-03-14T15:30:55;97964.75;;;14.13;54.76
75604;BME280;64187;51.010;13.792;2023-03-14T15:35:54;97973.44;;;14.06;54.47
75604;BME280;64187;51.010;13.792;2023-03-14T15:40:55;97972.78;;;14.00;54.09
75604;BME280;64187;51.010;13.792;2023-03-14T15:45:54;97976.47;;;13.96;53.98
75604;BME280;64187;51.010;13.792;2023-03-14T15:50:55;97977.75;;;13.90;54.02
75604;BME280;64187;51.010;13.792;2023-03-14T15:55:54;97988.53;;;14.42;56.69
75604;BME280;64187;51.010;13.792;2023-03-14T16:00:53;97988.75;;;15.14;54.87
75604;BME280;64187;51.010;13.792;2023-03-14T16:05:51;97991.25;;;14.42;53.41
75604;BME280;64187;51.010;13.792;2023-03-14T16:10:50;98003.63;;;14.13;54.00
75604;BME280;64187;51.010;13.792;2023-03-14T16:16:01;98019.53;;;13.94;55.24
75604;BME280;64187;51.010;13.792;2023-03-14T16:21:12;98046.38;;;13.78;55.87
75604;BME280;64187;51.010;13.792;2023-03-14T16:26:13;98074.03;;;13.54;58.66
75604;BME280;64187;51.010;13.792;2023-03-14T16:31:16;98098.25;;;12.93;62.86
75604;BME280;64187;51.010;13.792;2023-03-14T16:36:15;98110.56;;;12.68;65.33
75604;BME280;64187;51.010;13.792;2023-03-14T16:41:16;98142.69;;;12.29;69.99
75604;BME280;64187;51.010;13.792;2023-03-14T16:46:16;98163.72;;;11.88;72.18
75604;BME280;64187;51.010;13.792;2023-03-14T16:51:16;98280.72;;;11.15;73.37
75604;BME280;64187;51.010;13.792;2023-03-14T16:56:15;98326.97;;;8.03;77.08
75604;BME280;64187;51.010;13.792;2023-03-14T17:01:16;98371.53;;;7.34;79.36
75604;BME280;64187;51.010;13.792;2023-03-14T17:06:19;98398.41;;;7.03;80.04
75604;BME280;64187;51.010;13.792;2023-03-14T17:11:19;98424.78;;;7.17;79.98
75604;BME280;64187;51.010;13.792;2023-03-14T17:16:18;98446.31;;;7.17;79.34
75604;BME280;64187;51.010;13.792;2023-03-14T17:21:20;98500.38;;;6.47;79.66
75604;BME280;64187;51.010;13.792;2023-03-14T17:26:19;98533.63;;;6.36;79.63
75604;BME280;64187;51.010;13.792;2023-03-14T17:31:18;98576.38;;;6.05;79.46
75604;BME280;64187;51.010;13.792;2023-03-14T17:36:17;98618.06;;;6.13;80.32
75604;BME280;64187;51.010;13.792;2023-03-14T17:41:16;98692.44;;;5.85;78.53
75604;BME280;64187;51.010;13.792;2023-03-14T17:46:15;98714.59;;;5.53;80.02
75604;BME280;64187;51.010;13.792;2023-03-14T17:51:15;98748.25;;;5.83;76.42
75604;BME280;64187;51.010;13.792;2023-03-14T17:56:14;98790.22;;;5.67;76.06
75604;BME280;64187;51.010;13.792;2023-03-14T18:01:16;98807.69;;;5.70;76.60
75604;BME280;64187;51.010;13.792;2023-03-14T18:06:16;98843.81;;;5.79;73.81
75604;BME280;64187;51.010;13.792;2023-03-14T18:11:15;98876.50;;;4.63;77.14
75604;BME280;64187;51.010;13.792;2023-03-14T18:16:15;98895.63;;;4.54;77.01
75604;BME280;64187;51.010;13.792;2023-03-14T18:21:15;98915.34;;;4.48;77.75
75604;BME280;64187;51.010;13.792;2023-03-14T18:26:14;98933.47;;;4.99;75.86
75604;BME280;64187;51.010;13.792;2023-03-14T18:31:14;98950.47;;;4.75;75.90
75604;BME280;64187;51.010;13.792;2023-03-14T18:36:18;98960.56;;;4.45;78.53
75604;BME280;64187;51.010;13.792;2023-03-14T18:41:18;98963.09;;;4.51;77.40
75604;BME280;64187;51.010;13.792;2023-03-14T18:46:21;98988.06;;;4.28;79.68
75604;BME280;64187;51.010;13.792;2023-03-14T18:51:23;99011.34;;;4.16;79.66
75604;BME280;64187;51.010;13.792;2023-03-14T18:56:25;99023.69;;;3.94;80.81
75604;BME280;64187;51.010;13.792;2023-03-14T19:01:24;99018.09;;;3.95;79.67
75604;BME280;64187;51.010;13.792;2023-03-14T19:06:29;99038.69;;;4.06;79.65
75604;BME280;64187;51.010;13.792;2023-03-14T19:11:31;99055.38;;;4.20;79.01
75604;BME280;64187;51.010;13.792;2023-03-14T19:16:30;99077.03;;;4.19;79.08
75604;BME280;64187;51.010;13.792;2023-03-14T19:21:31;99085.66;;;4.32;78.18
75604;BME280;64187;51.010;13.792;2023-03-14T19:26:31;99098.13;;;4.39;77.87
75604;BME280;64187;51.010;13.792;2023-03-14T19:31:30;99113.50;;;4.43;77.30
75604;BME280;64187;51.010;13.792;2023-03-14T19:36:31;99116.41;;;4.42;76.83
75604;BME280;64187;51.010;13.792;2023-03-14T19:41:32;99135.16;;;4.42;77.86
75604;BME280;64187;51.010;13.792;2023-03-14T19:46:31;99147.03;;;4.34;76.96
75604;BME280;64187;51.010;13.792;2023-03-14T19:51:32;99155.41;;;4.26;75.70
75604;BME280;64187;51.010;13.792;2023-03-14T19:56:33;99165.06;;;4.27;75.45
75604;BME280;64187;51.010;13.792;2023-03-14T20:01:33;99178.84;;;4.30;73.95
75604;BME280;64187;51.010;13.792;2023-03-14T20:06:32;99200.53;;;4.41;74.06
75604;BME280;64187;51.010;13.792;2023-03-14T20:11:32;99195.38;;;4.39;73.08
75604;BME280;64187;51.010;13.792;2023-03-14T20:16:33;99203.25;;;4.22;72.97
75604;BME280;64187;51.010;13.792;2023-03-14T20:21:34;99220.59;;;4.20;72.12
75604;BME280;64187;51.010;13.792;2023-03-14T20:26:34;99233.09;;;4.26;71.43
75604;BME280;64187;51.010;13.792;2023-03-14T20:31:33;99235.78;;;4.26;70.83
75604;BME280;64187;51.010;13.792;2023-03-14T20:36:35;99249.44;;;4.36;70.09
75604;BME280;64187;51.010;13.792;2023-03-14T20:41:35;99268.72;;;4.26;70.99
75604;BME280;64187;51.010;13.792;2023-03-14T20:46:39;99273.63;;;4.29;70.99
75604;BME280;64187;51.010;13.792;2023-03-14T20:51:38;99279.69;;;4.25;70.70
75604;BME280;64187;51.010;13.792;2023-03-14T20:56:37;99288.56;;;4.37;69.51
75604;BME280;64187;51.010;13.792;2023-03-14T21:01:36;99289.84;;;4.35;69.03
75604;BME280;64187;51.010;13.792;2023-03-14T21:06:35;99298.88;;;4.22;69.05
75604;BME280;64187;51.010;13.792;2023-03-14T21:11:34;99318.06;;;4.19;67.66
75604;BME280;64187;51.010;13.792;2023-03-14T21:16:35;99344.19;;;4.23;66.70
75604;BME280;64187;51.010;13.792;2023-03-14T21:21:35;99339.97;;;4.16;66.27
75604;BME280;64187;51.010;13.792;2023-03-14T21:26:34;99354.75;;;4.18;65.40
75604;BME280;64187;51.010;13.792;2023-03-14T21:31:33;99364.88;;;3.98;65.45
75604;BME280;64187;51.010;13.792;2023-03-14T21:36:32;99360.78;;;3.95;64.85
75604;BME280;64187;51.010;13.792;2023-03-14T21:41:31;99358.25;;;4.00;64.88
75604;BME280;64187;51.010;13.792;2023-03-14T21:46:30;99366.72;;;3.79;65.48
75604;BME280;64187;51.010;13.792;2023-03-14T21:51:29;99383.50;;;3.67;66.37
75604;BME280;64187;51.010;13.792;2023-03-14T21:56:33;99398.06;;;3.53;67.50
75604;BME280;64187;51.010;13.792;2023-03-14T22:01:32;99406.06;;;3.78;66.27
75604;BME280;64187;51.010;13.792;2023-03-14T22:06:31;99409.00;;;3.45;66.03
75604;BME280;64187;51.010;13.792;2023-03-14T22:11:30;99418.41;;;3.29;67.58
75604;BME280;64187;51.010;13.792;2023-03-14T22:16:28;99419.94;;;3.43;66.55
75604;BME280;64187;51.010;13.792;2023-03-14T22:21:27;99431.28;;;3.64;64.80
75604;BME280;64187;51.010;13.792;2023-03-14T22:26:26;99453.31;;;3.41;65.37
75604;BME280;64187;51.010;13.792;2023-03-14T22:31:25;99467.94;;;3.38;65.68
75604;BME280;64187;51.010;13.792;2023-03-14T22:36:24;99474.44;;;3.49;65.30
75604;BME280;64187;51.010;13.792;2023-03-14T22:41:23;99487.31;;;3.59;64.51
75604;BME280;64187;51.010;13.792;2023-03-14T22:46:22;99502.25;;;3.41;64.94
75604;BME280;64187;51.010;13.792;2023-03-14T22:51:20;99499.09;;;3.58;65.32
75604;BME280;64187;51.010;13.792;2023-03-14T22:56:19;99497.28;;;3.77;64.75
75604;BME280;64187;51.010;13.792;2023-03-14T23:01:18;99497.56;;;3.69;63.34
75604;BME280;64187;51.010;13.792;2023-03-14T23:06:18;99504.81;;;3.86;64.86
75604;BME280;64187;51.010;13.792;2023-03-14T23:11:18;99514.28;;;3.89;65.30
75604;BME280;64187;51.010;13.792;2023-03-14T23:16:17;99529.13;;;3.85;64.21
75604;BME280;64187;51.010;13.792;2023-03-14T23:21:21;99532.09;;;3.70;64.69
75604;BME280;64187;51.010;13.792;2023-03-14T23:26:23;99525.69;;;3.78;63.21
75604;BME280;64187;51.010;13.792;2023-03-14T23:31:23;99539.09;;;3.78;62.25
75604;BME280;64187;51.010;13.792;2023-03-14T23:36:23;99542.19;;;3.43;64.85
75604;BME280;64187;51.010;13.792;2023-03-14T23:41:22;99540.38;;;3.69;62.01
75604;BME280;64187;51.010;13.792;2023-03-14T23:46:21;99541.31;;;3.49;62.28
75604;BME280;64187;51.010;13.792;2023-03-14T23:51:20;99552.28;;;3.41;63.69
75604;BME280;64187;51.010;13.792;2023-03-14T23:56:19;99559.38;;;3.15;65.46
